Time;durP1;ratioP1;P1;durP2;ratioP2;P2;SDS_P1;SDS_P2;PMS_P1;PMS_P2;Temp;Humidity;BMP_temperature;BMP_pressure;BME280_temperature;BME280_humidity;BME280_pressure;Samples;Min_cycle;Max_cycle;Signal;HPM_P1;HPM_P2
2022/10/17 00:03:08;;;;;;;1.50;0.90;;;16.10;99.90;;;;;;20915409;28;20213;-77
2022/10/17 00:13:10;;;;;;;2.17;0.90;;;16.00;99.90;;;;;;20910188;28;20562;-76
2022/10/17 00:23:12;;;;;;;1.37;1.00;;;;;;;;;;20909383;28;20218;-76
2022/10/17 00:33:14;;;;;;;1.13;0.87;;;;;;;;;;20905951;28;20222;-77
2022/10/17 00:43:17;;;;;;;1.80;1.07;;;;;;;;;;20916050;28;20714;-77
2022/10/17 00:53:19;;;;;;;1.20;0.80;;;;;;;;;;20978786;28;20683;-76
2022/10/17 01:03:21;;;;;;;1.13;0.83;;;;;;;;;;20974838;28;20634;-77
2022/10/17 01:13:41;;;;;;;1.33;0.90;;;;;;;;;;20953239;28;20715;-77
2022/10/17 01:23:58;;;;;;;2.07;0.90;;;;;;;;;;20986258;28;20274;-77
2022/10/17 01:34:03;;;;;;;1.50;0.80;;;;;;;;;;20973430;28;20565;-76
2022/10/17 01:44:09;;;;;;;1.40;0.73;;;;;;;;;;20974771;28;20213;-76
2022/10/17 01:54:19;;;;;;;1.33;0.87;;;;;;;;;;20975100;28;20217;-76
2022/10/17 02:04:21;;;;;;;1.77;0.90;;;;;;;;;;20983324;28;20217;-75
2022/10/17 02:14:23;;;;;;;1.53;1.00;;;;;;;;;;20966371;28;20200;-76
2022/10/17 02:24:31;;;;;;;1.73;1.10;;;;;;;;;;20983705;28;20654;-76
2022/10/17 02:34:36;;;;;;;1.83;1.20;;;;;;;;;;20982347;28;20511;-76
2022/10/17 02:44:40;;;;;;;3.07;1.07;;;15.40;99.90;;;;;;20985822;28;20282;-76
2022/10/17 02:54:47;;;;;;;1.10;0.70;;;;;;;;;;20975560;22;20230;-69
2022/10/17 03:04:49;;;;;;;1.53;0.80;;;;;;;;;;20883096;28;20267;-69
2022/10/17 03:14:52;;;;;;;1.10;0.90;;;;;;;;;;20883821;28;20194;-69
2022/10/17 03:24:54;;;;;;;2.53;0.90;;;;;;;;;;20866932;28;20623;-69
2022/10/17 03:34:56;;;;;;;1.10;0.80;;;;;;;;;;20813293;28;20226;-69
2022/10/17 03:44:58;;;;;;;1.60;1.00;;;;;;;;;;20781018;28;20295;-69
2022/10/17 03:55:00;;;;;;;1.17;0.80;;;;;;;;;;20808855;28;20775;-69
2022/10/17 04:05:03;;;;;;;1.27;0.83;;;;;;;;;;20851983;28;20226;-69
2022/10/17 04:15:05;;;;;;;1.40;0.80;;;;;;;;;;20863793;28;20595;-70
2022/10/17 04:25:07;;;;;;;1.73;1.00;;;;;;;;;;20862743;28;20573;-69
2022/10/17 04:35:12;;;;;;;3.60;0.97;;;;;;;;;;20862973;28;20277;-69
2022/10/17 04:45:19;;;;;;;0.97;0.67;;;;;;;;;;20878045;28;20269;-69
2022/10/17 04:55:25;;;;;;;1.47;0.80;;;;;;;;;;20861304;28;20749;-70
2022/10/17 05:05:27;;;;;;;1.80;0.90;;;14.70;99.90;;;;;;20890325;28;20242;-69
2022/10/17 05:15:30;;;;;;;0.90;0.70;;;;;;;;;;20875607;28;20742;-69
2022/10/17 05:25:41;;;;;;;1.57;0.90;;;13.80;99.90;;;;;;20858000;28;20230;-69
2022/10/17 05:35:44;;;;;;;2.00;0.70;;;;;;;;;;20802839;28;20566;-69
2022/10/17 05:45:46;;;;;;;3.87;1.20;;;;;;;;;;20772911;28;20242;-70
2022/10/17 05:56:01;;;;;;;2.43;0.90;;;14.40;99.90;;;;;;20790285;28;20218;-70
2022/10/17 06:06:10;;;;;;;1.33;0.90;;;14.40;99.90;;;;;;20791818;28;20288;-69
2022/10/17 06:16:15;;;;;;;1.83;0.90;;;;;;;;;;20821801;28;20209;-70
2022/10/17 06:26:18;;;;;;;1.00;0.63;;;;;;;;;;20839149;28;20763;-69
2022/10/17 06:36:20;;;;;;;2.73;0.80;;;;;;;;;;20789872;28;20205;-69
2022/10/17 06:46:25;;;;;;;1.20;0.87;;;;;;;;;;20837194;28;20213;-70
2022/10/17 06:56:33;;;;;;;2.97;0.73;;;;;;;;;;20784419;28;20263;-69
2022/10/17 07:06:55;;;;;;;1.13;0.80;;;;;;;;;;20859509;28;20252;-70
2022/10/17 07:17:01;;;;;;;1.70;0.87;;;;;;;;;;20801964;28;20610;-68
2022/10/17 07:27:06;;;;;;;0.90;0.80;;;;;;;;;;20804120;28;20275;-69
2022/10/17 07:37:08;;;;;;;2.30;0.73;;;;;;;;;;20810926;28;20214;-69
2022/10/17 07:47:12;;;;;;;3.07;0.73;;;;;;;;;;20874489;28;20790;-69
2022/10/17 07:57:14;;;;;;;4.53;1.20;;;;;;;;;;20862806;28;20758;-69
2022/10/17 08:07:16;;;;;;;2.23;0.90;;;;;;;;;;20831494;28;20280;-69
2022/10/17 08:17:18;;;;;;;0.90;0.70;;;;;;;;;;20795905;28;20219;-70
2022/10/17 08:27:23;;;;;;;2.93;1.23;;;;;;;;;;20793138;28;20230;-71
2022/10/17 08:37:26;;;;;;;3.27;0.90;;;;;;;;;;20791541;28;20226;-70
2022/10/17 08:47:35;;;;;;;1.97;1.00;;;;;;;;;;20773903;28;20262;-72
2022/10/17 08:57:37;;;;;;;3.30;0.90;;;;;;;;;;20777356;22;20254;-69
2022/10/17 09:07:40;;;;;;;3.47;1.03;;;;;;;;;;20736524;28;20250;-69
2022/10/17 09:17:59;;;;;;;1.40;0.90;;;16.80;99.90;;;;;;20703252;28;20714;-69
2022/10/17 09:28:11;;;;;;;2.30;1.03;;;;;;;;;;20711197;28;20230;-69
2022/10/17 09:38:18;;;;;;;1.33;0.93;;;;;;;;;;20719120;28;20772;-68
2022/10/17 09:48:45;;;;;;;3.97;1.30;;;17.80;99.90;;;;;;20706774;28;20285;-69
2022/10/17 09:58:49;;;;;;;2.13;1.40;;;;;;;;;;20701220;28;20267;-69
2022/10/17 10:08:57;;;;;;;2.67;1.47;;;18.40;99.90;;;;;;20715836;28;20216;-70
2022/10/17 10:18:59;;;;;;;1.43;1.00;;;;;;;;;;20713718;28;20311;-69
2022/10/17 10:29:04;;;;;;;0.60;0.50;;;;;;;;;;20715923;28;20248;-69
2022/10/17 10:39:13;;;;;;;1.90;0.90;;;;;;;;;;20689639;28;20229;-69
2022/10/17 10:49:31;;;;;;;0.77;0.60;;;19.20;99.90;;;;;;20732317;28;20215;-69
2022/10/17 10:59:39;;;;;;;2.17;0.87;;;;;;;;;;20709440;28;20232;-69
2022/10/17 11:10:13;;;;;;;1.50;0.80;;;19.60;99.90;;;;;;20717237;28;20239;-70
2022/10/17 11:20:34;;;;;;;1.43;0.97;;;;;;;;;;20721245;28;20229;-69
2022/10/17 11:30:56;;;;;;;2.00;0.80;;;19.90;99.90;;;;;;20708451;28;20768;-69
2022/10/17 11:40:59;;;;;;;1.93;0.93;;;20.00;99.90;;;;;;20712193;28;20560;-69
2022/10/17 11:51:08;;;;;;;1.20;0.60;;;;;;;;;;20737546;28;20732;-69
2022/10/17 12:01:22;;;;;;;0.60;0.40;;;;;;;;;;20693432;28;20219;-69
2022/10/17 12:12:03;;;;;;;1.53;0.70;;;20.80;99.90;;;;;;20716192;28;20214;-69
2022/10/17 12:22:11;;;;;;;1.50;0.63;;;21.10;99.90;;;;;;20612682;28;20286;-69
2022/10/17 12:32:14;;;;;;;0.87;0.70;;;;;;;;;;20619918;28;20219;-69
2022/10/17 12:42:30;;;;;;;2.37;0.70;;;21.30;99.90;;;;;;20624025;28;20615;-68
2022/10/17 12:52:33;;;;;;;1.83;0.80;;;;;;;;;;20625775;28;20356;-69
2022/10/17 13:02:36;;;;;;;2.47;0.90;;;;;;;;;;20659723;28;20260;-68
2022/10/17 13:12:38;;;;;;;1.13;0.73;;;;;;;;;;20626727;28;20302;-69
2022/10/17 13:22:44;;;;;;;2.77;0.90;;;21.60;99.90;;;;;;20625124;28;20272;-68
2022/10/17 13:32:46;;;;;;;3.17;0.97;;;;;;;;;;20621591;28;20241;-68
2022/10/17 13:42:49;;;;;;;1.73;0.73;;;21.70;99.90;;;;;;20638385;28;20256;-68
2022/10/17 13:53:05;;;;;;;1.10;0.73;;;;;;;;;;20621255;28;20219;-69
2022/10/17 14:03:07;;;;;;;1.70;0.77;;;;;;;;;;20620063;28;20221;-68
2022/10/17 14:13:23;;;;;;;2.20;0.90;;;21.10;99.90;;;;;;20620382;28;20213;-68
2022/10/17 14:23:44;;;;;;;0.70;0.63;;;;;;;;;;20688906;28;20238;-68
2022/10/17 14:33:46;;;;;;;2.50;0.80;;;;;;;;;;20721536;28;20270;-68
2022/10/17 14:43:56;;;;;;;1.73;0.80;;;20.90;99.90;;;;;;20722272;28;20224;-68
2022/10/17 14:54:00;;;;;;;2.93;0.70;;;;;;;;;;20735432;22;20223;-69
2022/10/17 15:04:02;;;;;;;3.13;0.90;;;20.50;99.90;;;;;;20880937;28;20225;-70
2022/10/17 15:14:04;;;;;;;2.73;0.90;;;;;;;;;;20906811;28;20300;-70
2022/10/17 15:24:06;;;;;;;1.17;0.80;;;;;;;;;;20860668;28;20716;-70
2022/10/17 15:34:09;;;;;;;1.43;0.93;;;;;;;;;;20859171;28;20233;-69
2022/10/17 15:44:11;;;;;;;2.63;0.70;;;;;;;;;;20893001;28;20225;-70
2022/10/17 15:54:13;;;;;;;3.60;0.80;;;;;;;;;;20850407;28;20231;-69
2022/10/17 16:04:16;;;;;;;4.47;1.30;;;;;;;;;;20811951;28;20238;-70
2022/10/17 16:14:17;;;;;;;3.73;1.13;;;20.30;99.90;;;;;;20837391;28;20271;-69
2022/10/17 16:24:19;;;;;;;6.27;1.10;;;;;;;;;;20781996;28;20221;-71
2022/10/17 16:34:21;;;;;;;1.80;0.77;;;;;;;;;;20864438;28;20636;-71
2022/10/17 16:44:23;;;;;;;1.23;0.63;;;;;;;;;;20810253;28;20217;-72
2022/10/17 16:54:25;;;;;;;1.53;1.00;;;;;;;;;;20811168;28;20325;-71
2022/10/17 17:04:27;;;;;;;2.57;1.13;;;;;;;;;;20808146;28;20274;-71
2022/10/17 17:14:29;;;;;;;1.80;1.17;;;;;;;;;;20791784;28;20700;-72
2022/10/17 17:24:31;;;;;;;3.70;1.03;;;;;;;;;;20825852;28;20238;-72
2022/10/17 17:34:37;;;;;;;2.23;1.00;;;;;;;;;;20805155;28;20227;-72
2022/10/17 17:44:38;;;;;;;6.73;1.40;;;;;;;;;;20780364;28;20279;-71
2022/10/17 17:54:40;;;;;;;2.27;1.30;;;;;;;;;;20794599;28;20279;-72
2022/10/17 18:04:42;;;;;;;3.00;1.13;;;;;;;;;;20803233;28;20221;-72
2022/10/17 18:14:44;;;;;;;2.63;1.10;;;;;;;;;;20799649;28;20264;-72
2022/10/17 18:24:46;;;;;;;3.00;1.17;;;;;;;;;;20787319;28;20684;-72
2022/10/17 18:34:48;;;;;;;3.40;1.10;;;;;;;;;;20870392;28;20209;-72
2022/10/17 18:44:50;;;;;;;1.80;1.00;;;;;;;;;;20861516;28;20873;-72
2022/10/17 18:54:52;;;;;;;1.90;0.90;;;;;;;;;;20859683;28;20573;-72
2022/10/17 19:04:55;;;;;;;3.00;1.00;;;;;;;;;;20861188;28;20278;-73
2022/10/17 19:14:57;;;;;;;7.43;4.00;;;;;;;;;;20818201;28;20225;-72
2022/10/17 19:24:58;;;;;;;3.20;2.17;;;;;;;;;;20780168;28;20669;-72
2022/10/17 19:35:00;;;;;;;2.80;1.93;;;;;;;;;;20798601;28;20293;-72
2022/10/17 19:45:02;;;;;;;3.63;1.70;;;;;;;;;;20784968;28;20234;-72
2022/10/17 19:55:04;;;;;;;2.47;1.40;;;18.70;99.90;;;;;;20751417;28;20225;-72
2022/10/17 20:05:11;;;;;;;2.07;1.57;;;;;;;;;;20845799;28;20223;-72
2022/10/17 20:15:13;;;;;;;2.60;1.40;;;;;;;;;;20805388;28;20210;-72
2022/10/17 20:25:15;;;;;;;3.53;2.10;;;;;;;;;;20809600;28;20673;-72
2022/10/17 20:35:17;;;;;;;3.50;2.20;;;;;;;;;;20824653;28;20210;-72
2022/10/17 20:45:19;;;;;;;5.23;2.03;;;;;;;;;;20808677;28;20214;-73
2022/10/17 20:55:20;;;;;;;4.17;2.10;;;;;;;;;;20810615;28;20226;-73
2022/10/17 21:05:23;;;;;;;4.30;1.63;;;;;;;;;;20809862;28;20294;-73
2022/10/17 21:15:25;;;;;;;2.37;1.20;;;;;;;;;;20793554;28;20672;-73
2022/10/17 21:25:26;;;;;;;2.93;1.70;;;;;;;;;;20792788;28;20229;-72
2022/10/17 21:35:31;;;;;;;6.03;2.10;;;;;;;;;;20791352;28;20275;-73
2022/10/17 21:45:35;;;;;;;2.90;1.63;;;18.20;99.90;;;;;;20898617;28;20305;-73
2022/10/17 21:55:37;;;;;;;3.60;1.50;;;;;;;;;;20872038;28;20275;-71
2022/10/17 22:05:38;;;;;;;3.00;1.40;;;;;;;;;;20872098;28;20207;-71
2022/10/17 22:15:41;;;;;;;2.97;1.50;;;;;;;;;;20856634;28;20233;-70
2022/10/17 22:25:42;;;;;;;2.27;1.50;;;;;;;;;;20854656;28;20277;-73
2022/10/17 22:35:44;;;;;;;1.83;1.20;;;;;;;;;;20842517;28;20643;-73
2022/10/17 22:46:00;;;;;;;2.43;1.50;;;17.90;99.90;;;;;;20886468;28;20274;-73
2022/10/17 22:56:11;;;;;;;3.90;1.30;;;17.90;99.90;;;;;;20870548;28;20292;-73
2022/10/17 23:06:17;;;;;;;4.30;1.50;;;17.80;99.90;;;;;;20899751;28;20300;-73
2022/10/17 23:16:19;;;;;;;2.53;1.53;;;;;;;;;;20869298;28;20212;-73
2022/10/17 23:26:22;;;;;;;2.77;1.67;;;;;;;;;;20885303;28;20235;-73
2022/10/17 23:36:23;;;;;;;4.53;1.87;;;;;;;;;;20900570;28;20688;-73
2022/10/17 23:46:25;;;;;;;3.40;1.57;;;;;;;;;;20842207;28;20239;-73
2022/10/17 23:56:27;;;;;;;6.30;1.53;;;;;;;;;;20859516;28;20765;-73
